createdAt,value
2022-10-25T00:00:56.301Z,989.23
2022-10-25T00:01:56.475Z,989.20
2022-10-25T00:02:56.301Z,989.23
2022-10-25T00:03:56.296Z,989.29
2022-10-25T00:04:56.310Z,989.25
2022-10-25T00:05:56.274Z,989.29
2022-10-25T00:06:56.273Z,989.34
2022-10-25T00:07:56.459Z,989.33
2022-10-25T00:08:56.250Z,989.37
2022-10-25T00:09:56.241Z,989.41
2022-10-25T00:10:56.222Z,989.42
2022-10-25T00:11:56.221Z,989.40
2022-10-25T00:12:56.215Z,989.41
2022-10-25T00:13:56.201Z,989.35
2022-10-25T00:14:56.190Z,989.39
2022-10-25T00:15:56.190Z,989.37
2022-10-25T00:16:56.184Z,989.32
2022-10-25T00:17:56.195Z,989.33
2022-10-25T00:18:56.179Z,989.33
2022-10-25T00:19:56.171Z,989.36
2022-10-25T00:20:56.185Z,989.37
2022-10-25T00:21:56.153Z,989.35
2022-10-25T00:22:56.156Z,989.36
2022-10-25T00:23:56.140Z,989.35
2022-10-25T00:24:56.134Z,989.25
2022-10-25T00:25:56.314Z,989.29
2022-10-25T00:26:56.104Z,989.25
2022-10-25T00:27:56.109Z,989.26
2022-10-25T00:28:56.100Z,989.25
2022-10-25T00:29:56.071Z,989.29
2022-10-25T00:30:56.073Z,989.27
2022-10-25T00:31:56.054Z,989.27
2022-10-25T00:32:56.252Z,989.26
2022-10-25T00:33:56.041Z,989.26
2022-10-25T00:34:56.042Z,989.22
2022-10-25T00:35:56.038Z,989.25
2022-10-25T00:36:56.028Z,989.21
2022-10-25T00:37:56.016Z,989.17
2022-10-25T00:38:56.047Z,989.18
2022-10-25T00:39:55.988Z,989.17
2022-10-25T00:40:55.996Z,989.15
2022-10-25T00:41:55.981Z,989.18
2022-10-25T00:42:55.978Z,989.14
2022-10-25T00:43:55.985Z,989.17
2022-10-25T00:44:55.962Z,989.14
2022-10-25T00:45:56.016Z,989.17
2022-10-25T00:46:55.939Z,989.14
2022-10-25T00:47:55.939Z,989.15
2022-10-25T00:48:55.931Z,989.19
2022-10-25T00:49:55.928Z,989.19
2022-10-25T00:50:55.906Z,989.21
2022-10-25T00:51:55.912Z,989.22
2022-10-25T00:52:55.911Z,989.25
2022-10-25T00:53:55.915Z,989.24
2022-10-25T00:54:55.910Z,989.25
2022-10-25T00:55:55.872Z,989.26
2022-10-25T00:56:55.882Z,989.26
2022-10-25T00:57:55.858Z,989.25
2022-10-25T00:58:55.859Z,989.20
2022-10-25T00:59:55.862Z,989.22
2022-10-25T01:00:55.845Z,989.21
2022-10-25T01:01:56.107Z,989.23
2022-10-25T01:03:55.818Z,989.25
2022-10-25T01:04:56.025Z,989.23
2022-10-25T01:05:55.802Z,989.26
2022-10-25T01:06:55.796Z,989.23
2022-10-25T01:07:55.776Z,989.25
2022-10-25T01:08:55.794Z,989.28
2022-10-25T01:09:55.793Z,989.27
2022-10-25T01:10:55.783Z,989.25
2022-10-25T01:11:55.750Z,989.28
2022-10-25T01:12:56.105Z,989.27
2022-10-25T01:13:55.744Z,989.28
2022-10-25T01:14:55.738Z,989.29
2022-10-25T01:15:55.773Z,989.32
2022-10-25T01:16:55.742Z,989.34
2022-10-25T01:17:55.711Z,989.30
2022-10-25T01:18:55.698Z,989.31
2022-10-25T01:19:55.684Z,989.31
2022-10-25T01:20:55.714Z,989.36
2022-10-25T01:21:55.670Z,989.34
2022-10-25T01:22:55.674Z,989.34
2022-10-25T01:23:55.647Z,989.35
2022-10-25T01:24:55.648Z,989.40
2022-10-25T01:25:55.655Z,989.40
2022-10-25T01:26:55.671Z,989.38
2022-10-25T01:28:55.617Z,989.43
2022-10-25T01:29:55.613Z,989.42
2022-10-25T01:30:55.607Z,989.38
2022-10-25T01:31:55.617Z,989.42
2022-10-25T01:32:55.588Z,989.42
2022-10-25T01:33:55.577Z,989.41
2022-10-25T01:34:55.571Z,989.39
2022-10-25T01:35:55.550Z,989.41
2022-10-25T01:36:55.551Z,989.41
2022-10-25T01:37:55.555Z,989.40
2022-10-25T01:38:55.527Z,989.41
2022-10-25T01:39:55.534Z,989.42
2022-10-25T01:40:55.529Z,989.42
2022-10-25T01:41:55.516Z,989.41
2022-10-25T01:42:55.517Z,989.42
2022-10-25T01:43:55.505Z,989.42
2022-10-25T01:44:55.498Z,989.41
2022-10-25T01:45:55.484Z,989.41
2022-10-25T01:46:55.487Z,989.41
2022-10-25T01:47:55.709Z,989.40
2022-10-25T01:48:55.476Z,989.41
2022-10-25T01:49:55.460Z,989.45
2022-10-25T01:50:55.452Z,989.42
2022-10-25T01:51:55.462Z,989.47
2022-10-25T01:52:55.503Z,989.46
2022-10-25T01:53:55.431Z,989.48
2022-10-25T01:54:55.455Z,989.47
2022-10-25T01:55:55.413Z,989.46
2022-10-25T01:56:55.392Z,989.46
2022-10-25T01:57:55.387Z,989.47
2022-10-25T01:58:55.405Z,989.47
2022-10-25T01:59:55.364Z,989.45
2022-10-25T02:00:55.462Z,989.49
2022-10-25T02:01:55.568Z,989.47
2022-10-25T02:02:55.369Z,989.45
2022-10-25T02:03:55.558Z,989.42
2022-10-25T02:04:55.343Z,989.44
2022-10-25T02:05:55.331Z,989.43
2022-10-25T02:06:55.324Z,989.45
2022-10-25T02:07:55.331Z,989.48
2022-10-25T02:08:55.322Z,989.46
2022-10-25T02:09:55.584Z,989.43
2022-10-25T02:10:55.286Z,989.46
2022-10-25T02:11:55.282Z,989.49
2022-10-25T02:12:55.265Z,989.51
2022-10-25T02:13:55.259Z,989.44
2022-10-25T02:14:55.279Z,989.48
2022-10-25T02:15:55.447Z,989.47
2022-10-25T02:16:55.230Z,989.48
2022-10-25T02:17:55.260Z,989.48
2022-10-25T02:18:55.262Z,989.46
2022-10-25T02:19:55.210Z,989.48
2022-10-25T02:20:55.213Z,989.51
2022-10-25T02:21:55.396Z,989.55
2022-10-25T02:22:55.197Z,989.54
2022-10-25T02:23:55.180Z,989.51
2022-10-25T02:24:55.187Z,989.49
2022-10-25T02:25:55.207Z,989.51
2022-10-25T02:26:55.160Z,989.50
2022-10-25T02:27:55.167Z,989.50
2022-10-25T02:28:55.192Z,989.45
2022-10-25T02:29:55.144Z,989.49
2022-10-25T02:30:55.168Z,989.50
2022-10-25T02:31:55.191Z,989.54
2022-10-25T02:32:55.115Z,989.53
2022-10-25T02:33:55.310Z,989.53
2022-10-25T02:34:55.164Z,989.54
2022-10-25T02:35:55.082Z,989.50
2022-10-25T02:36:55.075Z,989.51
2022-10-25T02:37:55.074Z,989.52
2022-10-25T02:38:55.072Z,989.55
2022-10-25T02:39:55.055Z,989.52
2022-10-25T02:40:55.238Z,989.50
2022-10-25T02:41:55.228Z,989.54
2022-10-25T02:42:55.125Z,989.51
2022-10-25T02:43:55.029Z,989.52
2022-10-25T02:44:55.044Z,989.53
2022-10-25T02:45:55.240Z,989.50
2022-10-25T02:46:55.023Z,989.51
2022-10-25T02:47:55.016Z,989.53
2022-10-25T02:48:54.982Z,989.59
2022-10-25T02:49:55.038Z,989.56
2022-10-25T02:50:54.968Z,989.57
2022-10-25T02:51:54.947Z,989.59
2022-10-25T02:52:54.979Z,989.58
2022-10-25T02:53:55.012Z,989.60
2022-10-25T02:54:54.930Z,989.66
2022-10-25T02:55:54.954Z,989.67
2022-10-25T02:56:54.928Z,989.69
2022-10-25T02:57:54.913Z,989.66
2022-10-25T02:58:54.969Z,989.71
2022-10-25T02:59:54.900Z,989.71
2022-10-25T03:00:55.023Z,989.70
2022-10-25T03:01:54.968Z,989.73
2022-10-25T03:02:55.166Z,989.73
2022-10-25T03:03:54.871Z,989.72
2022-10-25T03:04:54.843Z,989.73
2022-10-25T03:05:54.848Z,989.73
2022-10-25T03:06:54.856Z,989.72
2022-10-25T03:07:54.908Z,989.74
2022-10-25T03:08:54.843Z,989.73
2022-10-25T03:09:54.852Z,989.71
2022-10-25T03:10:54.816Z,989.77
2022-10-25T03:11:54.970Z,989.74
2022-10-25T03:12:54.775Z,989.71
2022-10-25T03:13:54.991Z,989.70
2022-10-25T03:14:54.779Z,989.69
2022-10-25T03:15:54.766Z,989.72
2022-10-25T03:16:54.762Z,989.73
2022-10-25T03:17:54.742Z,989.74
2022-10-25T03:18:54.745Z,989.72
2022-10-25T03:19:54.726Z,989.71
2022-10-25T03:20:54.710Z,989.74
2022-10-25T03:21:54.767Z,989.75
2022-10-25T03:22:54.699Z,989.79
2022-10-25T03:23:54.706Z,989.76
2022-10-25T03:24:54.861Z,989.80
2022-10-25T03:25:54.696Z,989.78
2022-10-25T03:26:54.662Z,989.80
2022-10-25T03:27:54.676Z,989.81
2022-10-25T03:28:54.644Z,989.82
2022-10-25T03:29:54.643Z,989.83
2022-10-25T03:30:54.692Z,989.84
2022-10-25T03:31:54.695Z,989.91
2022-10-25T03:32:54.668Z,989.88
2022-10-25T03:33:54.613Z,989.90
2022-10-25T03:34:54.650Z,989.89
2022-10-25T03:35:54.803Z,989.86
2022-10-25T03:36:54.647Z,989.89
2022-10-25T03:37:54.581Z,989.95
2022-10-25T03:38:54.577Z,989.97
2022-10-25T03:39:54.546Z,989.96
2022-10-25T03:40:54.545Z,989.97
2022-10-25T03:41:54.550Z,990.00
2022-10-25T03:42:54.517Z,989.99
2022-10-25T03:43:54.553Z,990.03
2022-10-25T03:44:54.521Z,990.00
2022-10-25T03:45:54.514Z,990.02
2022-10-25T03:46:54.521Z,990.06
2022-10-25T03:47:54.475Z,990.02
2022-10-25T03:48:54.519Z,990.07
2022-10-25T03:49:54.483Z,990.06
2022-10-25T03:50:54.522Z,990.07
2022-10-25T03:51:57.846Z,990.12
2022-10-25T03:52:54.475Z,990.10
2022-10-25T03:53:54.459Z,990.12
2022-10-25T03:54:54.429Z,990.16
2022-10-25T03:55:54.422Z,990.16
2022-10-25T03:56:54.431Z,990.16
2022-10-25T03:57:54.446Z,990.13
2022-10-25T03:58:54.429Z,990.15
2022-10-25T03:59:54.461Z,990.16
2022-10-25T04:00:54.504Z,990.18
2022-10-25T04:01:54.892Z,990.17
2022-10-25T04:02:56.057Z,990.15
2022-10-25T04:03:54.338Z,990.18
2022-10-25T04:04:54.360Z,990.22
2022-10-25T04:05:54.319Z,990.19
2022-10-25T04:06:54.337Z,990.25
2022-10-25T04:07:54.314Z,990.25
2022-10-25T04:08:54.318Z,990.23
2022-10-25T04:09:54.301Z,990.22
2022-10-25T04:10:54.490Z,990.24
2022-10-25T04:11:54.280Z,990.24
2022-10-25T04:12:54.944Z,990.27
2022-10-25T04:13:54.254Z,990.30
2022-10-25T04:14:54.278Z,990.29
2022-10-25T04:15:54.262Z,990.35
2022-10-25T04:16:54.224Z,990.33
2022-10-25T04:17:54.223Z,990.38
2022-10-25T04:18:54.219Z,990.38
2022-10-25T04:19:54.216Z,990.42
2022-10-25T04:20:54.206Z,990.43
2022-10-25T04:21:54.191Z,990.44
2022-10-25T04:22:54.206Z,990.40
2022-10-25T04:23:54.176Z,990.37
2022-10-25T04:24:54.171Z,990.43
2022-10-25T04:25:54.167Z,990.41
2022-10-25T04:26:54.332Z,990.42
2022-10-25T04:27:54.131Z,990.40
2022-10-25T04:28:54.329Z,990.44
2022-10-25T04:29:54.110Z,990.43
2022-10-25T04:30:54.127Z,990.39
2022-10-25T04:31:54.109Z,990.41
2022-10-25T04:32:54.131Z,990.39
2022-10-25T04:33:54.093Z,990.33
2022-10-25T04:34:54.090Z,990.36
2022-10-25T04:35:54.065Z,990.33
2022-10-25T04:36:54.059Z,990.34
2022-10-25T04:37:54.039Z,990.34
2022-10-25T04:38:54.059Z,990.31
2022-10-25T04:39:54.014Z,990.36
2022-10-25T04:40:54.018Z,990.39
2022-10-25T04:41:54.019Z,990.41
2022-10-25T04:42:54.031Z,990.42
2022-10-25T04:43:54.056Z,990.42
2022-10-25T04:44:53.986Z,990.42
2022-10-25T04:45:53.987Z,990.42
2022-10-25T04:46:53.966Z,990.44
2022-10-25T04:47:53.969Z,990.44
2022-10-25T04:48:53.951Z,990.41
2022-10-25T04:49:53.956Z,990.42
2022-10-25T04:50:53.945Z,990.38
2022-10-25T04:51:53.924Z,990.40
2022-10-25T04:52:53.929Z,990.38
2022-10-25T04:53:53.910Z,990.40
2022-10-25T04:54:53.912Z,990.40
2022-10-25T04:55:53.888Z,990.43
2022-10-25T04:56:53.880Z,990.38
2022-10-25T04:57:53.881Z,990.38
2022-10-25T04:58:53.878Z,990.36
2022-10-25T04:59:53.863Z,990.30
2022-10-25T05:00:53.866Z,990.35
2022-10-25T05:01:53.879Z,990.34
2022-10-25T05:02:53.867Z,990.36
2022-10-25T05:03:53.841Z,990.36
2022-10-25T05:04:53.814Z,990.35
2022-10-25T05:05:53.804Z,990.36
2022-10-25T05:06:53.795Z,990.33
2022-10-25T05:07:53.797Z,990.39
2022-10-25T05:08:53.793Z,990.35
2022-10-25T05:09:53.773Z,990.40
2022-10-25T05:10:53.795Z,990.39
2022-10-25T05:11:53.749Z,990.38
2022-10-25T05:12:53.759Z,990.41
2022-10-25T05:13:53.780Z,990.42
2022-10-25T05:14:53.729Z,990.40
2022-10-25T05:15:53.742Z,990.41
2022-10-25T05:16:53.708Z,990.41
2022-10-25T05:17:53.713Z,990.39
2022-10-25T05:18:53.729Z,990.39
2022-10-25T05:19:53.883Z,990.41
2022-10-25T05:20:53.682Z,990.43
2022-10-25T05:21:53.672Z,990.43
2022-10-25T05:22:53.693Z,990.43
2022-10-25T05:23:57.629Z,990.43
2022-10-25T05:24:53.663Z,990.48
2022-10-25T05:25:53.651Z,990.44
2022-10-25T05:26:53.691Z,990.49
2022-10-25T05:27:53.627Z,990.48
2022-10-25T05:28:53.634Z,990.53
2022-10-25T05:29:53.607Z,990.54
2022-10-25T05:30:53.603Z,990.53
2022-10-25T05:31:53.692Z,990.49
2022-10-25T05:32:53.571Z,990.52
2022-10-25T05:33:53.766Z,990.51
2022-10-25T05:34:53.551Z,990.55
2022-10-25T05:35:53.584Z,990.51
2022-10-25T05:36:53.531Z,990.56
2022-10-25T05:37:53.541Z,990.58
2022-10-25T05:38:53.514Z,990.60
2022-10-25T05:39:53.554Z,990.58
2022-10-25T05:40:53.562Z,990.56
2022-10-25T05:41:53.529Z,990.57
2022-10-25T05:42:53.575Z,990.55
2022-10-25T05:43:53.488Z,990.57
2022-10-25T05:44:53.476Z,990.63
2022-10-25T05:45:53.459Z,990.66
2022-10-25T05:46:53.466Z,990.68
2022-10-25T05:47:53.653Z,990.70
2022-10-25T05:48:53.439Z,990.68
2022-10-25T05:49:53.466Z,990.75
2022-10-25T05:50:59.317Z,990.79
2022-10-25T05:51:53.406Z,990.74
2022-10-25T05:52:53.416Z,990.76
2022-10-25T05:53:53.460Z,990.73
2022-10-25T05:54:53.397Z,990.76
2022-10-25T05:55:53.419Z,990.78
2022-10-25T05:56:53.375Z,990.81
2022-10-25T05:57:53.386Z,990.83
2022-10-25T05:58:53.399Z,990.81
2022-10-25T05:59:53.346Z,990.84
2022-10-25T06:00:53.391Z,990.82
2022-10-25T06:01:53.453Z,990.85
2022-10-25T06:02:53.321Z,990.89
2022-10-25T06:03:53.324Z,990.90
2022-10-25T06:04:53.330Z,990.96
2022-10-25T06:05:53.307Z,990.97
2022-10-25T06:06:53.274Z,991.04
2022-10-25T06:07:53.288Z,991.03
2022-10-25T06:08:53.391Z,991.03
2022-10-25T06:09:53.279Z,991.05
2022-10-25T06:10:53.259Z,991.03
2022-10-25T06:11:53.250Z,991.11
2022-10-25T06:12:53.232Z,991.12
2022-10-25T06:13:53.241Z,991.14
2022-10-25T06:14:53.260Z,991.15
2022-10-25T06:15:53.230Z,991.13
2022-10-25T06:16:53.200Z,991.19
2022-10-25T06:17:53.211Z,991.15
2022-10-25T06:18:53.202Z,991.07
2022-10-25T06:19:53.198Z,991.11
2022-10-25T06:20:53.213Z,991.17
2022-10-25T06:21:53.233Z,991.24
2022-10-25T06:22:53.160Z,991.39
2022-10-25T06:23:53.151Z,991.41
2022-10-25T06:24:53.140Z,991.50
2022-10-25T06:25:53.152Z,991.50
2022-10-25T06:26:53.315Z,991.59
2022-10-25T06:27:53.131Z,991.57
2022-10-25T06:28:53.314Z,991.41
2022-10-25T06:29:53.103Z,991.30
2022-10-25T06:30:53.131Z,991.68
2022-10-25T06:31:53.123Z,991.65
2022-10-25T06:32:53.097Z,991.35
2022-10-25T06:33:53.136Z,991.68
2022-10-25T06:34:53.094Z,991.94
2022-10-25T06:35:53.072Z,991.47
2022-10-25T06:36:53.071Z,991.41
2022-10-25T06:37:53.288Z,991.47
2022-10-25T06:38:53.070Z,991.42
2022-10-25T06:39:53.386Z,991.39
2022-10-25T06:40:53.044Z,991.44
2022-10-25T06:41:53.040Z,991.50
2022-10-25T06:42:53.037Z,991.62
2022-10-25T06:43:53.027Z,991.74
2022-10-25T06:44:53.019Z,991.45
2022-10-25T06:45:53.027Z,991.44
2022-10-25T06:47:15.941Z,991.46
2022-10-25T06:47:53.024Z,991.54
2022-10-25T06:48:53.053Z,991.92
2022-10-25T06:49:53.027Z,991.92
2022-10-25T06:50:52.979Z,992.00
2022-10-25T06:51:52.997Z,991.99
2022-10-25T06:52:53.259Z,992.04
2022-10-25T06:53:52.966Z,992.04
2022-10-25T06:54:52.973Z,992.02
2022-10-25T06:55:52.968Z,992.07
2022-10-25T06:56:52.985Z,992.06
2022-10-25T06:57:52.959Z,992.12
2022-10-25T06:58:52.945Z,992.11
2022-10-25T06:59:53.031Z,992.16
2022-10-25T07:00:53.018Z,992.17
2022-10-25T07:01:53.028Z,992.14
2022-10-25T07:02:52.953Z,992.09
2022-10-25T07:03:52.944Z,991.88
2022-10-25T07:04:52.939Z,991.77
2022-10-25T07:05:52.932Z,991.74
2022-10-25T07:06:55.260Z,991.76
2022-10-25T07:07:52.933Z,991.72
2022-10-25T07:08:52.925Z,991.78
2022-10-25T07:09:52.913Z,992.12
2022-10-25T07:10:52.928Z,992.14
2022-10-25T07:11:53.133Z,992.19
2022-10-25T07:12:52.914Z,992.17
2022-10-25T07:13:52.910Z,992.19
2022-10-25T07:14:52.904Z,992.21
2022-10-25T07:15:53.113Z,992.15
2022-10-25T07:16:52.897Z,992.08
2022-10-25T07:17:52.902Z,992.07
2022-10-25T07:18:52.946Z,992.09
2022-10-25T07:19:52.906Z,991.93
2022-10-25T07:20:52.905Z,991.97
2022-10-25T07:21:52.898Z,992.06
2022-10-25T07:22:55.511Z,992.04
2022-10-25T07:23:52.949Z,991.95
2022-10-25T07:24:52.885Z,991.93
2022-10-25T07:25:52.898Z,991.93
2022-10-25T07:26:52.910Z,991.91
2022-10-25T07:27:52.881Z,991.92
2022-10-25T07:28:53.164Z,991.97
2022-10-25T07:29:52.951Z,991.98
2022-10-25T07:30:53.121Z,991.97
2022-10-25T07:31:52.907Z,991.99
2022-10-25T07:32:52.897Z,992.23
2022-10-25T07:33:52.877Z,992.04
2022-10-25T07:34:53.327Z,992.03
2022-10-25T07:36:05.821Z,992.00
2022-10-25T07:36:53.017Z,992.01
2022-10-25T07:37:53.027Z,991.98
2022-10-25T07:38:52.853Z,991.99
2022-10-25T07:39:52.804Z,992.03
2022-10-25T07:40:52.811Z,992.02
2022-10-25T07:41:52.849Z,992.13
2022-10-25T07:42:52.833Z,992.08
2022-10-25T07:43:52.860Z,992.07
2022-10-25T07:44:52.809Z,992.09
2022-10-25T07:45:52.811Z,992.06
2022-10-25T07:46:52.802Z,992.14
2022-10-25T07:47:52.815Z,992.11
2022-10-25T07:48:52.808Z,992.15
2022-10-25T07:49:52.772Z,992.13
2022-10-25T07:50:52.817Z,992.18
2022-10-25T07:51:52.800Z,992.18
2022-10-25T07:52:52.990Z,992.19
2022-10-25T07:53:52.772Z,992.21
2022-10-25T07:54:52.779Z,992.21
2022-10-25T07:55:52.764Z,992.22
2022-10-25T07:56:52.818Z,992.19
2022-10-25T07:57:52.743Z,992.23
2022-10-25T07:58:52.811Z,992.18
2022-10-25T07:59:52.786Z,992.14
2022-10-25T08:00:52.780Z,992.16
2022-10-25T08:01:52.853Z,992.13
2022-10-25T08:02:52.841Z,992.13
2022-10-25T08:03:52.837Z,992.16
2022-10-25T08:04:54.346Z,992.11
2022-10-25T08:05:52.744Z,992.12
2022-10-25T08:06:52.713Z,992.19
2022-10-25T08:07:52.730Z,992.17
2022-10-25T08:08:52.884Z,992.16
2022-10-25T08:09:52.692Z,992.15
2022-10-25T08:10:52.688Z,992.18
2022-10-25T08:11:52.655Z,992.08
2022-10-25T08:12:52.768Z,992.20
2022-10-25T08:13:52.708Z,992.13
2022-10-25T08:14:52.650Z,992.16
2022-10-25T08:15:52.636Z,992.23
2022-10-25T08:16:52.658Z,992.15
2022-10-25T08:17:52.638Z,992.13
2022-10-25T08:18:52.630Z,992.20
2022-10-25T08:19:52.639Z,992.21
2022-10-25T08:21:07.996Z,992.18
2022-10-25T08:21:52.646Z,992.22
2022-10-25T08:22:52.651Z,992.27
2022-10-25T08:23:52.843Z,992.34
2022-10-25T08:24:52.805Z,992.30
2022-10-25T08:25:52.642Z,992.33
2022-10-25T08:26:52.644Z,992.32
2022-10-25T08:27:52.599Z,992.33
2022-10-25T08:28:52.585Z,992.33
2022-10-25T08:29:52.602Z,992.35
2022-10-25T08:30:52.621Z,992.31
2022-10-25T08:31:52.614Z,992.38
2022-10-25T08:32:52.788Z,992.33
2022-10-25T08:33:52.798Z,992.27
2022-10-25T08:34:52.549Z,992.26
2022-10-25T08:35:52.545Z,992.31
2022-10-25T08:36:52.546Z,992.31
2022-10-25T08:37:52.539Z,992.29
2022-10-25T08:38:52.589Z,992.31
2022-10-25T08:39:54.928Z,992.26
2022-10-25T08:40:52.544Z,992.27
2022-10-25T08:41:52.543Z,992.24
2022-10-25T08:42:52.505Z,992.24
2022-10-25T08:43:52.556Z,992.24
2022-10-25T08:44:52.537Z,992.28
2022-10-25T08:45:52.489Z,992.31
2022-10-25T08:46:52.705Z,992.31
2022-10-25T08:47:52.485Z,992.32
2022-10-25T08:48:52.525Z,992.30
2022-10-25T08:49:52.514Z,992.32
2022-10-25T08:50:52.518Z,992.36
2022-10-25T08:51:52.485Z,992.34
2022-10-25T08:52:52.513Z,992.42
2022-10-25T08:53:55.509Z,992.44
2022-10-25T08:54:52.562Z,992.42
2022-10-25T08:56:11.677Z,992.44
2022-10-25T08:57:10.737Z,992.42
2022-10-25T08:57:52.458Z,992.37
2022-10-25T08:58:52.476Z,992.36
2022-10-25T08:59:52.422Z,992.34
2022-10-25T09:00:52.453Z,992.40
2022-10-25T09:01:52.590Z,992.39
2022-10-25T09:02:52.413Z,992.41
2022-10-25T09:03:52.407Z,992.50
2022-10-25T09:04:52.428Z,992.49
2022-10-25T09:05:52.423Z,992.50
2022-10-25T09:06:52.393Z,992.55
2022-10-25T09:07:52.414Z,992.53
2022-10-25T09:08:52.438Z,992.56
2022-10-25T09:09:52.393Z,992.57
2022-10-25T09:10:52.480Z,992.62
2022-10-25T09:11:52.408Z,992.62
2022-10-25T09:12:52.345Z,992.61
2022-10-25T09:13:52.355Z,992.59
2022-10-25T09:14:52.382Z,992.61
2022-10-25T09:15:52.334Z,992.63
2022-10-25T09:16:52.334Z,992.64
2022-10-25T09:17:52.346Z,992.63
2022-10-25T09:18:52.312Z,992.63
2022-10-25T09:19:52.337Z,992.60
2022-10-25T09:20:52.362Z,992.63
2022-10-25T09:21:52.309Z,992.68
2022-10-25T09:22:52.339Z,992.71
2022-10-25T09:23:52.283Z,992.68
2022-10-25T09:24:54.104Z,992.66
2022-10-25T09:25:52.262Z,992.66
2022-10-25T09:26:52.289Z,992.61
2022-10-25T09:27:52.265Z,992.70
2022-10-25T09:28:52.275Z,992.63
2022-10-25T09:29:52.314Z,992.68
2022-10-25T09:30:52.274Z,992.67
2022-10-25T09:31:52.255Z,992.65
2022-10-25T09:32:52.251Z,992.65
2022-10-25T09:33:52.271Z,992.64
2022-10-25T09:34:52.311Z,992.64
2022-10-25T09:35:52.239Z,992.67
2022-10-25T09:36:52.467Z,992.68
2022-10-25T09:37:52.426Z,992.73
2022-10-25T09:38:52.208Z,992.76
2022-10-25T09:39:52.231Z,992.75
2022-10-25T09:40:52.197Z,992.71
2022-10-25T09:41:52.286Z,992.74
2022-10-25T09:42:52.429Z,992.71
2022-10-25T09:43:52.194Z,992.69
2022-10-25T09:44:52.185Z,992.76
2022-10-25T09:45:52.171Z,992.77
2022-10-25T09:46:52.195Z,992.76
2022-10-25T09:47:52.222Z,992.76
2022-10-25T09:48:52.152Z,992.76
2022-10-25T09:49:52.158Z,992.74
2022-10-25T09:50:52.131Z,992.78
2022-10-25T09:51:52.153Z,992.80
2022-10-25T09:52:52.166Z,992.80
2022-10-25T09:53:52.141Z,992.81
2022-10-25T09:54:52.181Z,992.79
2022-10-25T09:55:52.102Z,992.75
2022-10-25T09:56:52.106Z,992.78
2022-10-25T09:57:52.092Z,992.85
2022-10-25T09:58:52.225Z,992.76
2022-10-25T09:59:52.113Z,992.76
2022-10-25T10:00:52.089Z,992.86
2022-10-25T10:01:52.273Z,992.86
2022-10-25T10:02:52.254Z,992.84
2022-10-25T10:03:54.796Z,992.88
2022-10-25T10:04:52.051Z,992.86
2022-10-25T10:05:52.082Z,992.84
2022-10-25T10:06:52.095Z,992.87
2022-10-25T10:07:52.058Z,992.89
2022-10-25T10:08:52.054Z,992.89
2022-10-25T10:09:52.286Z,992.89
2022-10-25T10:10:52.062Z,992.87
2022-10-25T10:11:52.036Z,992.95
2022-10-25T10:12:52.295Z,992.92
2022-10-25T10:13:52.240Z,992.91
2022-10-25T10:14:52.044Z,992.91
2022-10-25T10:15:52.068Z,992.87
2022-10-25T10:16:52.002Z,992.89
2022-10-25T10:17:52.070Z,992.90
2022-10-25T10:18:52.034Z,992.86
2022-10-25T10:19:52.024Z,992.86
2022-10-25T10:20:51.977Z,992.85
2022-10-25T10:21:52.031Z,992.86
2022-10-25T10:22:51.988Z,992.84
2022-10-25T10:23:51.980Z,992.86
2022-10-25T10:24:51.934Z,992.84
2022-10-25T10:25:51.989Z,992.84
2022-10-25T10:26:51.947Z,992.86
2022-10-25T10:27:51.939Z,992.82
2022-10-25T10:28:51.933Z,992.78
2022-10-25T10:29:52.140Z,992.77
2022-10-25T10:30:51.950Z,992.77
2022-10-25T10:31:51.918Z,992.77
2022-10-25T10:32:53.857Z,992.76
2022-10-25T10:33:52.321Z,992.69
2022-10-25T10:34:51.901Z,992.71
2022-10-25T10:35:51.894Z,992.67
2022-10-25T10:36:51.966Z,992.67
2022-10-25T10:37:51.891Z,992.68
2022-10-25T10:38:51.905Z,992.66
2022-10-25T10:39:51.878Z,992.67
2022-10-25T10:40:52.013Z,992.70
2022-10-25T10:41:51.872Z,992.71
2022-10-25T10:42:52.895Z,992.70
2022-10-25T10:43:51.866Z,992.67
2022-10-25T10:44:51.851Z,992.70
2022-10-25T10:45:51.854Z,992.61
2022-10-25T10:46:51.846Z,992.67
2022-10-25T10:47:51.849Z,992.69
2022-10-25T10:48:51.818Z,992.61
2022-10-25T10:49:51.820Z,992.61
2022-10-25T10:50:51.847Z,992.64
2022-10-25T10:51:52.030Z,992.62
2022-10-25T10:52:55.132Z,992.65
2022-10-25T10:53:51.788Z,992.68
2022-10-25T10:54:51.793Z,992.66
2022-10-25T10:55:51.847Z,992.61
2022-10-25T10:56:51.786Z,992.61
2022-10-25T10:57:51.816Z,992.62
2022-10-25T10:58:53.582Z,992.61
2022-10-25T10:59:51.782Z,992.64
2022-10-25T11:00:51.769Z,992.57
2022-10-25T11:01:51.919Z,992.65
2022-10-25T11:02:52.623Z,992.63
2022-10-25T11:03:59.847Z,992.62
2022-10-25T11:04:51.753Z,992.68
2022-10-25T11:05:51.748Z,992.66
2022-10-25T11:06:51.776Z,992.68
2022-10-25T11:07:51.747Z,992.68
2022-10-25T11:08:51.791Z,992.70
2022-10-25T11:09:51.930Z,992.66
2022-10-25T11:10:51.929Z,992.67
2022-10-25T11:11:51.747Z,992.66
2022-10-25T11:12:51.944Z,992.69
2022-10-25T11:13:51.709Z,992.63
2022-10-25T11:14:51.691Z,992.69
2022-10-25T11:15:51.687Z,992.67
2022-10-25T11:16:51.728Z,992.69
2022-10-25T11:17:51.696Z,992.70
2022-10-25T11:18:51.809Z,992.72
2022-10-25T11:19:51.709Z,992.66
2022-10-25T11:20:51.695Z,992.71
2022-10-25T11:21:51.665Z,992.73
2022-10-25T11:22:51.670Z,992.75
2022-10-25T11:23:51.677Z,992.78
2022-10-25T11:24:51.694Z,992.72
2022-10-25T11:25:51.640Z,992.75
2022-10-25T11:26:51.645Z,992.73
2022-10-25T11:27:51.845Z,992.72
2022-10-25T11:28:51.672Z,992.76
2022-10-25T11:29:51.647Z,992.76
2022-10-25T11:30:51.620Z,992.75
2022-10-25T11:31:51.651Z,992.77
2022-10-25T11:32:51.666Z,992.73
2022-10-25T11:33:51.606Z,992.76
2022-10-25T11:34:51.701Z,992.76
2022-10-25T11:35:51.601Z,992.77
2022-10-25T11:36:51.601Z,992.75
2022-10-25T11:37:51.560Z,992.76
2022-10-25T11:38:51.570Z,992.78
2022-10-25T11:39:51.768Z,992.78
2022-10-25T11:40:51.554Z,992.77
2022-10-25T11:41:51.556Z,992.78
2022-10-25T11:42:51.573Z,992.78
2022-10-25T11:43:51.587Z,992.81
2022-10-25T11:44:51.564Z,992.83
2022-10-25T11:45:51.594Z,992.83
2022-10-25T11:46:51.534Z,992.81
2022-10-25T11:47:51.532Z,992.82
2022-10-25T11:48:51.525Z,992.82
2022-10-25T11:49:56.741Z,992.84
2022-10-25T11:50:51.637Z,992.82
2022-10-25T11:51:51.523Z,992.84
2022-10-25T11:52:54.443Z,992.86
2022-10-25T11:53:51.523Z,992.86
2022-10-25T11:54:51.477Z,992.80
2022-10-25T11:55:51.517Z,992.79
2022-10-25T11:56:51.516Z,992.84
2022-10-25T11:57:51.488Z,992.81
2022-10-25T11:58:51.489Z,992.82
2022-10-25T11:59:51.477Z,992.82
2022-10-25T12:00:51.467Z,992.85
2022-10-25T12:01:51.574Z,992.87
2022-10-25T12:02:51.776Z,992.84
2022-10-25T12:03:51.692Z,992.82
2022-10-25T12:04:51.429Z,992.84
2022-10-25T12:05:51.452Z,992.82
2022-10-25T12:06:51.565Z,992.85
2022-10-25T12:07:51.443Z,992.86
2022-10-25T12:08:51.471Z,992.84
2022-10-25T12:09:51.402Z,992.87
2022-10-25T12:10:51.429Z,992.92
2022-10-25T12:11:51.394Z,992.98
2022-10-25T12:12:51.409Z,992.93
2022-10-25T12:13:51.401Z,992.92
2022-10-25T12:14:51.393Z,992.93
2022-10-25T12:15:51.378Z,992.90
2022-10-25T12:16:51.369Z,992.91
2022-10-25T12:17:51.410Z,992.94
2022-10-25T12:18:51.366Z,992.93
2022-10-25T12:19:51.399Z,992.94
2022-10-25T12:20:51.607Z,992.83
2022-10-25T12:21:51.347Z,992.92
2022-10-25T12:22:51.498Z,992.99
2022-10-25T12:23:51.375Z,992.95
2022-10-25T12:24:51.345Z,992.92
2022-10-25T12:25:51.364Z,992.99
2022-10-25T12:26:51.504Z,992.97
2022-10-25T12:27:56.420Z,993.00
2022-10-25T12:28:51.372Z,992.98
2022-10-25T12:29:51.305Z,992.93
2022-10-25T12:30:51.316Z,992.95